Time;durP1;ratioP1;P1;durP2;ratioP2;P2;SDS_P1;SDS_P2;PMS_P1;PMS_P2;Temp;Humidity;BMP_temperature;BMP_pressure;BME280_temperature;BME280_humidity;BME280_pressure;Samples;Min_cycle;Max_cycle;Signal;HPM_P1;HPM_P2
2022/12/28 00:00:20;;;;;;;8.35;3.72;;;3.10;80.70;;;;;;5013255;28;20092;-74
2022/12/28 00:02:46;;;;;;;7.10;2.97;;;3.00;80.60;;;;;;5013306;28;20026;-74
2022/12/28 00:05:11;;;;;;;7.35;3.50;;;3.00;81.00;;;;;;5012865;28;20026;-73
2022/12/28 00:07:37;;;;;;;5.20;2.70;;;3.00;81.00;;;;;;5012954;28;20026;-73
2022/12/28 00:10:03;;;;;;;6.47;3.25;;;3.10;81.00;;;;;;5012946;28;20026;-73
2022/12/28 00:12:29;;;;;;;7.95;2.60;;;3.10;81.00;;;;;;5012949;28;20030;-73
2022/12/28 00:14:54;;;;;;;6.43;2.72;;;3.20;81.10;;;;;;5013211;28;20037;-73
2022/12/28 00:17:20;;;;;;;5.60;2.40;;;3.20;81.00;;;;;;5013182;28;20061;-74
2022/12/28 00:19:45;;;;;;;3.95;2.13;;;3.30;80.90;;;;;;5014046;28;20076;-73
2022/12/28 00:22:11;;;;;;;5.18;2.15;;;3.40;80.70;;;;;;5017328;28;20030;-73
2022/12/28 00:24:36;;;;;;;2.70;1.33;;;3.40;80.30;;;;;;5017291;28;20030;-73
2022/12/28 00:27:02;;;;;;;5.03;1.67;;;3.50;80.30;;;;;;5017129;28;20032;-73
2022/12/28 00:29:27;;;;;;;5.30;1.88;;;3.60;80.00;;;;;;5017094;28;20030;-73
2022/12/28 00:31:53;;;;;;;3.10;1.50;;;3.70;79.70;;;;;;5015855;28;20026;-73
2022/12/28 00:34:18;;;;;;;3.35;1.27;;;3.80;79.10;;;;;;5016997;28;20030;-73
2022/12/28 00:36:44;;;;;;;2.20;1.23;;;3.90;78.80;;;;;;5016864;28;20030;-73
2022/12/28 00:39:09;;;;;;;3.13;0.88;;;4.00;78.40;;;;;;5016664;28;20026;-72
2022/12/28 00:41:35;;;;;;;1.02;0.70;;;4.00;78.10;;;;;;5016539;28;20053;-73
2022/12/28 00:44:00;;;;;;;2.00;0.70;;;4.10;78.00;;;;;;5016885;28;20045;-73
2022/12/28 00:46:26;;;;;;;1.83;0.80;;;4.10;77.70;;;;;;5016800;28;20034;-73
2022/12/28 00:48:52;;;;;;;1.08;0.60;;;4.20;77.40;;;;;;5015434;28;20028;-73
2022/12/28 00:51:18;;;;;;;1.48;0.70;;;4.30;77.00;;;;;;5016787;28;20105;-73
2022/12/28 00:53:45;;;;;;;1.75;0.88;;;4.30;76.50;;;;;;5016720;28;20030;-73
2022/12/28 00:56:17;;;;;;;0.85;0.57;;;4.40;76.10;;;;;;5016728;28;20368;-73
2022/12/28 00:58:43;;;;;;;1.48;0.50;;;4.50;76.00;;;;;;5016550;28;20494;-73
2022/12/28 01:01:28;;;;;;;3.92;0.70;;;4.50;75.60;;;;;;5016545;28;20041;-73
2022/12/28 01:03:59;;;;;;;2.13;0.88;;;4.60;75.30;;;;;;5016364;28;20061;-74
2022/12/28 01:06:26;;;;;;;3.53;0.93;;;4.60;75.10;;;;;;5014949;28;20025;-73
2022/12/28 01:08:52;;;;;;;1.60;0.60;;;4.50;75.10;;;;;;5016206;28;20022;-73
2022/12/28 01:11:24;;;;;;;1.83;0.77;;;4.60;75.10;;;;;;5016322;28;20040;-73
2022/12/28 01:13:51;;;;;;;3.25;0.85;;;4.50;75.00;;;;;;5016297;28;20022;-73
2022/12/28 01:16:20;;;;;;;1.52;0.80;;;4.50;75.10;;;;;;5016187;28;20065;-74
2022/12/28 01:18:46;;;;;;;2.30;0.80;;;4.50;75.20;;;;;;5015948;28;20034;-73
2022/12/28 01:21:15;;;;;;;1.80;0.63;;;4.60;75.10;;;;;;5016124;28;20075;-74
2022/12/28 01:23:41;;;;;;;1.52;0.50;;;4.60;74.90;;;;;;5016096;28;20080;-73
2022/12/28 01:26:07;;;;;;;1.20;0.63;;;4.60;74.20;;;;;;5016035;28;20033;-74
2022/12/28 01:28:33;;;;;;;0.68;0.50;;;4.70;74.30;;;;;;5016010;28;20386;-74
2022/12/28 01:31:09;;;;;;;1.80;0.47;;;4.80;74.20;;;;;;5015140;28;20025;-74
2022/12/28 01:33:35;;;;;;;2.67;0.50;;;4.90;73.40;;;;;;5015820;28;20110;-73
2022/12/28 01:36:19;;;;;;;1.10;0.52;;;5.00;72.80;;;;;;5015847;28;20049;-74
2022/12/28 01:38:45;;;;;;;1.85;0.70;;;5.10;72.50;;;;;;5014388;28;20041;-74
2022/12/28 01:41:16;;;;;;;1.23;0.40;;;5.10;72.40;;;;;;5015613;28;20054;-74
2022/12/28 01:43:50;;;;;;;0.60;0.40;;;5.20;72.20;;;;;;5015687;28;20029;-74
2022/12/28 01:46:23;;;;;;;0.68;0.28;;;5.20;72.30;;;;;;5015665;28;20029;-74
2022/12/28 01:48:55;;;;;;;2.88;0.60;;;5.20;72.30;;;;;;5015812;28;20471;-74
2022/12/28 01:51:24;;;;;;;0.70;0.52;;;5.20;72.40;;;;;;5015747;28;20057;-73
2022/12/28 01:53:52;;;;;;;2.05;0.38;;;5.20;72.20;;;;;;5015735;28;20060;-74
2022/12/28 01:56:17;;;;;;;1.58;0.43;;;5.20;71.90;;;;;;5015648;28;20083;-74
2022/12/28 01:58:44;;;;;;;1.08;0.60;;;5.20;72.10;;;;;;5015527;28;20045;-74
2022/12/28 02:01:10;;;;;;;1.67;0.52;;;5.20;72.30;;;;;;5015649;28;20470;-74
2022/12/28 02:03:36;;;;;;;1.85;0.85;;;5.20;72.40;;;;;;5015455;28;20040;-74
2022/12/28 02:06:07;;;;;;;2.30;0.50;;;5.30;72.50;;;;;;5015456;28;20014;-74
2022/12/28 02:08:40;;;;;;;1.25;0.60;;;5.20;72.60;;;;;;5015439;28;20068;-74
2022/12/28 02:11:07;;;;;;;2.97;0.57;;;5.20;72.50;;;;;;5015115;28;20045;-74
2022/12/28 02:13:33;;;;;;;1.42;0.47;;;5.30;72.50;;;;;;5015249;28;20025;-74
2022/12/28 02:15:59;;;;;;;0.47;0.30;;;5.30;72.50;;;;;;5015213;28;20541;-74
2022/12/28 02:18:25;;;;;;;5.05;0.52;;;5.30;71.70;;;;;;5015212;28;20042;-74
2022/12/28 02:21:19;;;;;;;2.38;0.35;;;5.40;71.50;;;;;;5015282;28;20040;-74
2022/12/28 02:24:06;;;;;;;0.90;0.32;;;5.40;71.00;;;;;;5015254;28;20022;-74
2022/12/28 02:26:37;;;;;;;2.25;0.57;;;5.50;70.70;;;;;;5013636;28;20026;-73
2022/12/28 02:29:12;;;;;;;1.42;0.40;;;5.60;70.60;;;;;;5015109;28;20029;-73
2022/12/28 02:31:40;;;;;;;1.55;0.43;;;5.60;70.10;;;;;;5015028;28;20022;-74
2022/12/28 02:34:22;;;;;;;2.63;0.52;;;5.60;70.10;;;;;;5013441;28;20145;-74
2022/12/28 02:37:19;;;;;;;1.00;0.30;;;5.60;69.90;;;;;;5014747;28;20105;-74
2022/12/28 02:39:51;;;;;;;3.08;0.30;;;5.70;70.20;;;;;;5002729;28;20053;-75
2022/12/28 02:42:17;;;;;;;1.88;0.30;;;5.70;70.10;;;;;;5014478;28;20547;-74
2022/12/28 02:50:14;;;;;;;1.80;0.40;;;5.70;70.00;;;;;;5014626;28;20040;-74
2022/12/28 02:52:53;;;;;;;0.32;0.30;;;5.80;69.70;;;;;;5014548;28;20482;-74
2022/12/28 02:58:48;;;;;;;2.35;0.35;;;5.80;69.90;;;;;;5014592;28;20037;-74
2022/12/28 03:01:22;;;;;;;0.40;0.22;;;5.80;69.60;;;;;;5014603;28;20026;-75
2022/12/28 03:04:21;;;;;;;3.15;0.50;;;5.80;69.90;;;;;;5014479;28;20022;-75
2022/12/28 03:10:19;;;;;;;2.25;0.65;;;5.80;69.80;;;;;;5008832;28;20038;-75
2022/12/28 03:12:50;;;;;;;1.83;0.50;;;5.80;69.80;;;;;;5014261;28;20068;-75
2022/12/28 03:15:30;;;;;;;2.65;0.50;;;5.80;69.60;;;;;;5014269;28;20111;-75
2022/12/28 03:31:51;;;;;;;3.13;0.43;;;5.70;70.40;;;;;;5014304;28;20119;-75
2022/12/28 03:34:17;;;;;;;2.55;0.38;;;5.80;70.50;;;;;;5014091;28;20054;-75
2022/12/28 03:36:54;;;;;;;2.78;0.32;;;5.80;70.50;;;;;;5013981;28;20368;-74
2022/12/28 03:39:39;;;;;;;1.42;0.50;;;5.80;70.50;;;;;;5013566;28;20038;-75
2022/12/28 03:45:34;;;;;;;2.38;0.80;;;5.70;70.80;;;;;;5013739;28;20037;-75
2022/12/28 03:48:02;;;;;;;3.05;0.60;;;5.70;71.00;;;;;;5013616;28;20076;-75
2022/12/28 03:50:29;;;;;;;4.28;0.63;;;5.60;71.30;;;;;;5012301;28;20356;-75
2022/12/28 03:52:57;;;;;;;7.35;1.13;;;5.60;71.60;;;;;;5013481;28;20383;-75
2022/12/28 03:55:24;;;;;;;2.38;0.60;;;5.60;71.60;;;;;;5012708;28;20032;-75
2022/12/28 03:57:50;;;;;;;1.52;0.50;;;5.60;71.80;;;;;;5013468;28;20083;-74
2022/12/28 04:00:16;;;;;;;3.60;0.55;;;5.50;72.10;;;;;;5013383;28;20065;-75
2022/12/28 04:02:41;;;;;;;3.33;1.05;;;5.50;72.40;;;;;;5013323;28;20030;-75
2022/12/28 04:05:07;;;;;;;3.53;1.10;;;5.40;72.80;;;;;;5013264;28;20044;-74
2022/12/28 04:07:33;;;;;;;3.30;0.70;;;5.30;73.30;;;;;;5013082;28;20076;-74
2022/12/28 04:09:58;;;;;;;1.10;0.80;;;5.30;73.80;;;;;;5013181;28;20030;-75
2022/12/28 04:12:24;;;;;;;1.50;0.70;;;5.10;74.00;;;;;;5015512;28;20101;-75
2022/12/28 04:14:49;;;;;;;3.55;1.02;;;5.10;74.60;;;;;;5017069;28;20394;-74
2022/12/28 04:17:15;;;;;;;2.13;0.90;;;5.10;74.50;;;;;;5013313;28;20114;-74
2022/12/28 04:19:40;;;;;;;3.53;0.90;;;5.10;74.60;;;;;;5013134;28;20062;-75
2022/12/28 04:22:06;;;;;;;2.70;1.00;;;5.10;74.60;;;;;;5013065;28;20033;-76
2022/12/28 04:24:31;;;;;;;4.18;1.30;;;5.00;74.60;;;;;;5013140;28;20026;-75
2022/12/28 04:26:57;;;;;;;4.28;1.20;;;5.00;74.80;;;;;;5013194;28;20022;-75
2022/12/28 04:29:22;;;;;;;1.80;1.05;;;5.00;74.80;;;;;;5013092;28;20030;-75
2022/12/28 04:31:48;;;;;;;2.00;1.40;;;5.00;75.00;;;;;;5013181;28;20033;-75
2022/12/28 04:34:14;;;;;;;2.45;1.35;;;5.00;75.20;;;;;;5013100;28;20363;-75
2022/12/28 04:36:41;;;;;;;4.53;1.73;;;5.00;75.20;;;;;;5012792;28;20018;-75
2022/12/28 04:39:07;;;;;;;3.67;1.75;;;5.10;75.40;;;;;;5012908;28;20038;-75
2022/12/28 04:41:32;;;;;;;3.90;2.00;;;5.00;75.40;;;;;;5012650;28;20413;-75
2022/12/28 04:43:58;;;;;;;3.03;2.25;;;5.00;75.80;;;;;;5012955;28;20109;-75
2022/12/28 04:46:24;;;;;;;4.68;2.45;;;5.00;76.20;;;;;;5012824;28;20106;-75
2022/12/28 04:48:50;;;;;;;4.85;2.78;;;4.90;76.50;;;;;;5013082;28;20037;-74
2022/12/28 04:51:19;;;;;;;3.47;2.53;;;4.90;76.50;;;;;;5013003;28;20486;-74
2022/12/28 04:53:44;;;;;;;4.07;2.45;;;4.80;76.90;;;;;;5013026;28;20390;-74
2022/12/28 04:56:11;;;;;;;3.78;2.90;;;4.90;77.20;;;;;;5012755;28;20022;-74
2022/12/28 04:58:38;;;;;;;6.25;2.70;;;4.80;77.10;;;;;;5012747;28;20073;-74
2022/12/28 05:01:06;;;;;;;4.32;2.40;;;4.80;77.10;;;;;;5012934;28;20026;-75
2022/12/28 05:03:32;;;;;;;6.60;3.20;;;4.80;76.90;;;;;;5013044;28;20018;-74
2022/12/28 05:06:01;;;;;;;4.90;2.78;;;4.80;77.00;;;;;;5012944;28;20037;-74
2022/12/28 05:08:27;;;;;;;6.65;2.85;;;4.80;77.20;;;;;;5015084;28;20084;-74
2022/12/28 05:10:53;;;;;;;5.25;2.85;;;4.80;77.20;;;;;;5016389;28;20415;-74
2022/12/28 05:13:18;;;;;;;7.70;3.45;;;4.80;77.20;;;;;;5016411;28;20029;-74
2022/12/28 05:15:44;;;;;;;5.35;3.25;;;4.80;77.50;;;;;;5016359;28;20026;-74
2022/12/28 05:18:09;;;;;;;4.93;3.63;;;4.70;77.80;;;;;;5016253;28;20395;-74
2022/12/28 05:20:35;;;;;;;6.93;3.70;;;4.60;78.10;;;;;;5016236;28;20030;-74
2022/12/28 05:23:00;;;;;;;5.32;3.38;;;4.60;78.40;;;;;;5016208;28;20344;-74
2022/12/28 05:25:26;;;;;;;5.07;3.20;;;4.60;78.60;;;;;;5016019;28;20506;-74
2022/12/28 05:27:54;;;;;;;4.85;3.50;;;4.60;78.50;;;;;;5016189;28;20033;-74
2022/12/28 05:30:19;;;;;;;6.55;3.40;;;4.60;78.70;;;;;;5016077;28;20025;-75
2022/12/28 05:32:45;;;;;;;5.60;3.47;;;4.60;78.60;;;;;;5016103;28;20648;-74
2022/12/28 05:35:10;;;;;;;8.35;4.35;;;4.60;78.70;;;;;;5015925;28;20061;-74
2022/12/28 05:37:36;;;;;;;10.80;3.92;;;4.60;78.60;;;;;;5015963;28;20117;-75
2022/12/28 05:40:01;;;;;;;5.43;3.30;;;4.50;78.80;;;;;;5015500;28;20454;-73
2022/12/28 05:42:27;;;;;;;5.82;3.22;;;4.50;78.70;;;;;;5015738;28;20525;-74
2022/12/28 05:44:52;;;;;;;5.72;2.88;;;4.50;78.60;;;;;;5015644;28;20026;-74
2022/12/28 05:47:18;;;;;;;5.18;3.35;;;4.60;78.60;;;;;;5014511;28;20061;-73
2022/12/28 05:49:44;;;;;;;4.38;3.22;;;4.50;78.70;;;;;;5015747;28;20505;-74
2022/12/28 05:52:09;;;;;;;7.28;4.30;;;4.50;78.80;;;;;;5015637;28;20030;-73
2022/12/28 05:54:35;;;;;;;5.22;3.92;;;4.60;78.80;;;;;;5015665;28;20038;-74
2022/12/28 05:57:00;;;;;;;6.68;3.88;;;4.60;78.80;;;;;;5015560;28;20030;-74
2022/12/28 05:59:26;;;;;;;6.32;4.70;;;4.60;78.90;;;;;;5015316;28;20045;-73
2022/12/28 06:01:51;;;;;;;10.32;4.68;;;4.50;79.00;;;;;;5015555;28;20029;-73
2022/12/28 06:04:19;;;;;;;5.70;4.20;;;4.40;79.40;;;;;;5015339;28;20030;-73
2022/12/28 06:06:46;;;;;;;7.93;4.10;;;4.50;79.60;;;;;;5015105;28;20033;-74
2022/12/28 06:09:12;;;;;;;17.42;4.95;;;4.50;79.70;;;;;;5014267;28;20037;-74
2022/12/28 06:11:38;;;;;;;8.38;4.68;;;4.40;79.50;;;;;;5014182;28;20026;-74
2022/12/28 06:14:04;;;;;;;8.02;4.90;;;4.40;79.60;;;;;;5014332;28;20029;-74
2022/12/28 06:16:33;;;;;;;7.28;4.40;;;4.40;79.80;;;;;;5014172;28;20097;-74
2022/12/28 06:19:02;;;;;;;6.40;4.00;;;4.40;79.90;;;;;;5014399;28;20056;-75
2022/12/28 06:21:30;;;;;;;4.90;3.50;;;4.30;79.90;;;;;;5014920;28;20056;-74
2022/12/28 06:23:58;;;;;;;5.75;3.75;;;4.40;79.80;;;;;;5015121;28;20032;-74
2022/12/28 06:26:24;;;;;;;6.93;3.30;;;4.40;79.80;;;;;;5015184;28;20026;-74
2022/12/28 06:28:50;;;;;;;7.03;3.90;;;4.40;79.70;;;;;;5015059;28;20026;-74
2022/12/28 06:31:21;;;;;;;5.95;3.90;;;4.40;79.80;;;;;;5014902;28;20038;-74
2022/12/28 06:33:49;;;;;;;5.13;3.60;;;4.30;79.80;;;;;;5015024;28;20474;-74
2022/12/28 06:36:20;;;;;;;6.75;4.45;;;4.30;80.00;;;;;;5014805;28;20053;-74
2022/12/28 06:38:47;;;;;;;5.47;3.63;;;4.30;80.20;;;;;;5014732;28;20486;-74
2022/12/28 06:41:14;;;;;;;9.15;5.68;;;4.30;80.10;;;;;;5014720;28;20510;-74
2022/12/28 06:43:41;;;;;;;6.53;3.92;;;4.30;80.30;;;;;;5014688;28;20022;-75
2022/12/28 06:46:07;;;;;;;8.10;4.15;;;4.20;80.40;;;;;;5014441;28;20109;-74
2022/12/28 06:48:34;;;;;;;8.60;5.03;;;4.20;80.50;;;;;;5014515;28;20383;-74
2022/12/28 06:51:06;;;;;;;7.82;4.32;;;4.20;80.30;;;;;;5014463;28;20018;-74
2022/12/28 06:53:35;;;;;;;6.72;3.40;;;4.20;80.40;;;;;;5014497;28;20116;-75
2022/12/28 06:56:06;;;;;;;5.47;2.92;;;4.20;80.30;;;;;;5014402;28;20382;-75
2022/12/28 06:58:32;;;;;;;6.07;3.20;;;4.20;80.40;;;;;;5014507;28;20056;-74
2022/12/28 07:01:06;;;;;;;4.60;3.13;;;4.20;80.50;;;;;;5013077;28;20036;-75
2022/12/28 07:03:31;;;;;;;10.10;4.20;;;4.20;80.50;;;;;;5014382;28;20463;-74
2022/12/28 07:06:01;;;;;;;10.05;4.85;;;4.10;80.70;;;;;;5014183;28;20041;-75
2022/12/28 07:08:27;;;;;;;8.25;4.55;;;4.10;80.80;;;;;;5014122;28;20114;-74
2022/12/28 07:10:52;;;;;;;9.63;4.85;;;4.10;80.70;;;;;;5013816;28;20472;-74
2022/12/28 07:13:18;;;;;;;7.22;5.03;;;4.10;81.00;;;;;;5014247;28;20101;-74
2022/12/28 07:15:43;;;;;;;13.02;4.53;;;4.10;81.30;;;;;;5012722;28;20077;-75
2022/12/28 07:18:09;;;;;;;9.07;4.82;;;4.10;81.20;;;;;;5013865;28;20053;-75
2022/12/28 07:20:34;;;;;;;8.57;4.90;;;4.10;81.20;;;;;;5013712;28;20027;-74
2022/12/28 07:23:00;;;;;;;7.38;4.65;;;4.10;81.30;;;;;;5013945;28;20033;-75
2022/12/28 07:25:25;;;;;;;9.43;4.93;;;4.10;82.00;;;;;;5013986;28;20524;-75
2022/12/28 07:27:51;;;;;;;6.85;4.57;;;4.10;81.20;;;;;;5013915;28;20053;-74
2022/12/28 07:30:17;;;;;;;7.57;4.72;;;4.10;82.00;;;;;;5013105;28;20100;-75
2022/12/28 07:32:42;;;;;;;6.55;4.82;;;4.10;81.40;;;;;;5013784;28;20032;-75
2022/12/28 07:35:08;;;;;;;6.82;4.85;;;4.20;81.40;;;;;;5013741;28;20088;-74
2022/12/28 07:37:34;;;;;;;8.52;5.15;;;4.20;81.20;;;;;;5014250;28;20036;-75
2022/12/28 07:40:00;;;;;;;8.07;4.70;;;4.30;81.20;;;;;;5013429;28;20042;-75
2022/12/28 07:42:27;;;;;;;7.13;4.03;;;4.30;81.00;;;;;;5013359;28;20442;-75
2022/12/28 07:44:53;;;;;;;6.03;4.03;;;4.40;80.60;;;;;;5013544;28;20026;-74
2022/12/28 07:47:18;;;;;;;7.47;3.50;;;4.50;80.50;;;;;;5013419;28;20100;-74
2022/12/28 07:49:44;;;;;;;6.57;3.97;;;4.50;80.30;;;;;;5013322;28;20096;-73
2022/12/28 07:52:10;;;;;;;6.10;3.65;;;4.50;80.20;;;;;;5013145;28;20044;-74
2022/12/28 07:54:35;;;;;;;8.75;4.03;;;4.60;79.80;;;;;;5013637;28;20030;-75
2022/12/28 07:57:01;;;;;;;6.65;4.18;;;4.70;79.50;;;;;;5013579;28;20515;-74
2022/12/28 07:59:27;;;;;;;6.18;3.60;;;4.70;79.30;;;;;;5013537;28;20034;-74
2022/12/28 08:01:52;;;;;;;5.57;3.15;;;4.70;79.00;;;;;;5011975;28;20018;-74
2022/12/28 08:04:18;;;;;;;4.90;3.20;;;4.70;78.80;;;;;;5013087;28;20113;-74
2022/12/28 08:06:44;;;;;;;6.70;3.03;;;4.90;78.90;;;;;;5013703;28;20165;-74
2022/12/28 08:09:12;;;;;;;5.75;3.38;;;4.90;78.50;;;;;;5013141;28;20048;-74
2022/12/28 08:11:43;;;;;;;5.28;2.78;;;4.90;78.00;;;;;;5013257;28;20105;-76
2022/12/28 08:14:09;;;;;;;7.78;3.85;;;5.00;77.90;;;;;;5013190;28;20029;-75
2022/12/28 08:16:38;;;;;;;3.33;2.65;;;5.00;77.80;;;;;;5013100;28;20025;-74
2022/12/28 08:19:05;;;;;;;5.60;2.97;;;5.10;77.40;;;;;;5013407;28;20041;-75
2022/12/28 08:21:33;;;;;;;8.10;2.95;;;5.10;77.20;;;;;;5013279;28;20014;-74
2022/12/28 08:23:59;;;;;;;4.88;2.47;;;5.20;76.70;;;;;;5013087;28;20359;-74
2022/12/28 08:26:28;;;;;;;4.28;2.33;;;5.20;76.60;;;;;;5013223;28;20018;-75
2022/12/28 08:28:57;;;;;;;4.90;2.80;;;5.30;76.30;;;;;;5013354;28;20018;-74
2022/12/28 08:31:25;;;;;;;4.50;2.38;;;5.30;76.40;;;;;;5015440;28;20030;-76
2022/12/28 08:33:53;;;;;;;3.97;2.20;;;5.30;76.30;;;;;;5014625;28;20022;-75
2022/12/28 08:36:19;;;;;;;5.13;2.53;;;5.40;76.20;;;;;;5015117;28;20030;-76
2022/12/28 08:38:45;;;;;;;5.03;2.53;;;5.40;76.40;;;;;;5013570;28;20036;-75
2022/12/28 08:41:16;;;;;;;3.42;2.22;;;5.30;76.20;;;;;;5014621;28;20072;-74
2022/12/28 08:43:42;;;;;;;7.30;2.58;;;5.40;76.30;;;;;;5016935;28;20022;-76
2022/12/28 08:46:12;;;;;;;6.47;2.95;;;5.70;79.90;;;;;;5016736;28;20030;-75
2022/12/28 08:48:38;;;;;;;7.22;2.67;;;5.90;75.70;;;;;;5016591;28;20430;-77
2022/12/28 08:51:08;;;;;;;7.88;2.67;;;6.00;74.10;;;;;;5016670;28;20098;-75
2022/12/28 08:53:34;;;;;;;4.70;2.35;;;5.90;74.30;;;;;;5016770;28;20498;-74
2022/12/28 08:56:09;;;;;;;4.97;2.20;;;6.10;73.50;;;;;;5016528;28;20064;-74
2022/12/28 08:58:36;;;;;;;3.92;2.22;;;6.10;73.10;;;;;;5015198;28;20030;-75
2022/12/28 09:01:10;;;;;;;7.97;2.47;;;6.10;72.70;;;;;;5016894;28;20030;-89
2022/12/28 09:03:37;;;;;;;9.25;2.53;;;6.40;74.50;;;;;;5018942;28;20045;-88
2022/12/28 09:06:04;;;;;;;11.10;2.60;;;6.80;76.40;;;;;;5018875;28;20133;-83
2022/12/28 09:08:30;;;;;;;4.65;1.83;;;7.10;72.90;;;;;;5019000;28;20395;-88
2022/12/28 09:10:59;;;;;;;5.45;1.85;;;7.40;72.20;;;;;;5018189;28;20034;-88
2022/12/28 09:13:25;;;;;;;4.70;2.38;;;7.60;69.90;;;;;;5016734;28;20017;-83
2022/12/28 09:16:09;;;;;;;7.47;2.63;;;7.70;70.30;;;;;;5015305;28;20034;-73
2022/12/28 09:18:36;;;;;;;3.78;2.25;;;7.40;67.10;;;;;;5015887;28;20022;-73
2022/12/28 09:21:17;;;;;;;4.38;2.08;;;7.20;68.30;;;;;;5015901;28;20029;-73
2022/12/28 09:23:44;;;;;;;3.95;2.60;;;6.90;69.00;;;;;;5015814;28;20088;-73
2022/12/28 09:26:16;;;;;;;7.15;3.08;;;6.70;70.00;;;;;;5015841;28;20036;-73
2022/12/28 09:28:46;;;;;;;7.95;3.38;;;6.50;71.30;;;;;;5015857;28;20065;-73
2022/12/28 09:31:12;;;;;;;7.68;3.50;;;6.30;71.90;;;;;;5015747;28;20014;-72
2022/12/28 09:36:21;;;;;;;6.40;3.50;;;6.10;73.20;;;;;;5016021;28;20057;-73
2022/12/28 09:38:48;;;;;;;3.55;2.90;;;6.10;73.50;;;;;;5015564;28;20033;-74
2022/12/28 09:41:28;;;;;;;5.57;3.40;;;6.00;73.80;;;;;;5015359;28;20375;-73
2022/12/28 09:44:13;;;;;;;6.28;2.88;;;6.10;73.90;;;;;;5015520;28;20356;-74
2022/12/28 09:46:41;;;;;;;5.13;2.63;;;6.10;74.50;;;;;;5015598;28;20025;-73
2022/12/28 09:49:16;;;;;;;3.50;2.72;;;6.00;73.80;;;;;;5015669;28;20033;-73
2022/12/28 09:52:18;;;;;;;7.22;2.83;;;6.10;73.80;;;;;;5009618;28;20549;-74
2022/12/28 09:54:43;;;;;;;7.80;4.13;;;6.00;74.10;;;;;;5015528;28;20073;-74
2022/12/28 09:57:13;;;;;;;5.00;3.15;;;6.00;74.40;;;;;;5015081;28;20482;-73
2022/12/28 09:59:39;;;;;;;4.85;3.47;;;6.00;74.10;;;;;;5014102;28;20062;-73
2022/12/28 10:02:18;;;;;;;5.95;3.63;;;6.10;74.40;;;;;;5014025;28;20026;-73
2022/12/28 10:04:47;;;;;;;5.10;3.65;;;6.10;74.20;;;;;;5014201;28;20017;-73
2022/12/28 10:07:12;;;;;;;4.28;3.00;;;6.20;74.10;;;;;;5013818;28;20441;-73
2022/12/28 10:09:38;;;;;;;5.07;3.03;;;6.30;73.70;;;;;;5013782;28;20029;-74
2022/12/28 10:12:15;;;;;;;4.25;2.92;;;6.40;73.50;;;;;;5012459;28;20041;-73
2022/12/28 10:14:44;;;;;;;4.03;2.85;;;6.40;73.40;;;;;;5008247;28;20060;-74
2022/12/28 10:17:12;;;;;;;4.47;3.22;;;6.40;73.30;;;;;;5013569;28;20045;-73
2022/12/28 10:19:37;;;;;;;4.47;3.03;;;6.40;73.30;;;;;;5013642;28;20038;-73
2022/12/28 10:22:11;;;;;;;7.07;3.22;;;6.50;73.30;;;;;;5013937;28;20033;-73
2022/12/28 10:24:38;;;;;;;4.43;2.75;;;6.60;72.80;;;;;;5013549;28;20083;-73
2022/12/28 10:27:11;;;;;;;4.75;3.10;;;6.60;72.80;;;;;;5013693;28;20356;-73
2022/12/28 10:29:37;;;;;;;4.85;3.45;;;6.60;72.90;;;;;;5014011;28;20034;-73
2022/12/28 10:32:08;;;;;;;7.53;4.38;;;6.70;72.90;;;;;;5013390;28;20022;-73
2022/12/28 10:34:35;;;;;;;5.20;4.00;;;6.80;72.70;;;;;;5012423;28;20037;-72
2022/12/28 10:37:07;;;;;;;4.88;3.17;;;6.80;72.10;;;;;;5014615;28;20063;-72
2022/12/28 10:39:33;;;;;;;5.65;3.40;;;6.90;73.00;;;;;;5014724;28;20139;-73
2022/12/28 10:41:59;;;;;;;6.50;3.78;;;6.90;72.00;;;;;;5014398;28;20499;-72
2022/12/28 10:44:27;;;;;;;5.22;3.42;;;6.90;72.20;;;;;;5014422;28;20088;-72
2022/12/28 10:47:05;;;;;;;7.43;3.70;;;6.90;72.00;;;;;;5013365;28;20104;-72
2022/12/28 10:49:34;;;;;;;5.43;3.75;;;6.90;72.20;;;;;;5011091;28;20248;-73
2022/12/28 10:52:18;;;;;;;8.02;3.67;;;6.80;72.40;;;;;;5007775;28;20022;-73
2022/12/28 10:54:44;;;;;;;11.23;4.30;;;6.80;72.40;;;;;;5008356;28;20026;-72
2022/12/28 10:57:30;;;;;;;6.25;3.78;;;6.80;72.40;;;;;;5012935;28;20080;-73
2022/12/28 11:00:15;;;;;;;4.25;3.03;;;6.90;72.20;;;;;;5012279;28;20053;-72
2022/12/28 11:02:41;;;;;;;6.65;3.60;;;6.90;72.20;;;;;;5007757;28;20558;-73
2022/12/28 11:05:21;;;;;;;5.97;3.80;;;6.90;72.50;;;;;;5013147;28;20057;-73
2022/12/28 11:07:48;;;;;;;4.47;3.22;;;6.90;72.50;;;;;;5008005;28;20018;-74
2022/12/28 11:10:21;;;;;;;4.38;3.08;;;6.90;72.50;;;;;;5012432;28;20021;-73
2022/12/28 11:12:47;;;;;;;6.25;3.42;;;7.10;72.10;;;;;;5011221;28;20029;-74
2022/12/28 11:15:19;;;;;;;5.72;2.70;;;7.20;71.60;;;;;;5012420;28;20105;-74
2022/12/28 11:17:52;;;;;;;5.28;3.08;;;7.30;71.00;;;;;;5010289;28;20024;-74
2022/12/28 11:20:23;;;;;;;3.38;2.47;;;7.40;70.60;;;;;;5012297;28;20030;-74
2022/12/28 11:22:50;;;;;;;4.78;3.17;;;7.50;70.00;;;;;;5012653;28;20061;-74
2022/12/28 11:25:17;;;;;;;4.15;3.13;;;7.50;70.10;;;;;;5012200;28;20108;-74
2022/12/28 11:27:48;;;;;;;7.00;3.75;;;7.60;70.10;;;;;;5012271;28;20022;-76
2022/12/28 11:30:18;;;;;;;5.25;2.80;;;7.80;69.20;;;;;;5012356;28;20025;-73
2022/12/28 11:32:52;;;;;;;3.90;2.63;;;8.20;68.30;;;;;;5011127;28;20030;-74
2022/12/28 11:35:22;;;;;;;4.50;3.00;;;8.60;66.20;;;;;;5012304;28;20032;-74
2022/12/28 11:37:59;;;;;;;8.13;3.17;;;9.30;64.00;;;;;;5012306;28;20076;-77
2022/12/28 11:40:44;;;;;;;5.68;3.63;;;10.20;60.20;;;;;;5012015;28;20145;-73
2022/12/28 11:43:27;;;;;;;3.90;2.70;;;10.30;58.60;;;;;;5010926;28;20061;-74
2022/12/28 11:46:00;;;;;;;5.68;2.85;;;10.50;57.90;;;;;;5011692;28;20496;-73
2022/12/28 11:48:41;;;;;;;4.60;2.85;;;10.60;56.60;;;;;;5009005;28;20030;-74
2022/12/28 11:51:28;;;;;;;5.18;2.53;;;11.00;55.60;;;;;;5010323;28;20046;-74
2022/12/28 11:54:31;;;;;;;4.68;2.58;;;11.50;53.60;;;;;;5011305;28;20037;-74
2022/12/28 11:56:58;;;;;;;5.63;2.47;;;12.80;49.90;;;;;;5011385;28;20022;-73
2022/12/28 11:59:25;;;;;;;5.30;2.35;;;14.30;46.00;;;;;;5011835;28;20144;-73
2022/12/28 12:01:52;;;;;;;3.00;2.17;;;15.10;43.00;;;;;;5012268;28;20036;-75
2022/12/28 12:04:29;;;;;;;2.90;2.30;;;16.10;40.40;;;;;;5011757;28;20021;-74
2022/12/28 12:07:00;;;;;;;2.90;1.95;;;16.40;38.70;;;;;;5011992;28;20026;-75
2022/12/28 12:09:41;;;;;;;3.53;2.10;;;16.70;38.30;;;;;;5010068;28;20036;-75
2022/12/28 12:12:30;;;;;;;2.33;1.70;;;17.20;37.20;;;;;;5007300;28;20021;-73
2022/12/28 12:15:00;;;;;;;3.67;2.03;;;18.60;34.50;;;;;;5008881;28;20053;-79
2022/12/28 12:17:46;;;;;;;2.53;1.70;;;19.60;32.50;;;;;;5018215;28;20061;-78
2022/12/28 12:20:42;;;;;;;2.72;1.77;;;19.50;31.80;;;;;;5017319;28;20096;-75
2022/12/28 12:23:18;;;;;;;3.15;2.00;;;19.90;31.20;;;;;;5017042;28;20049;-73
2022/12/28 12:25:47;;;;;;;1.73;1.63;;;19.40;31.00;;;;;;5013494;28;20014;-73
2022/12/28 12:28:35;;;;;;;2.90;2.05;;;18.80;33.40;;;;;;5018197;28;20032;-74
2022/12/28 12:31:05;;;;;;;2.97;2.35;;;18.30;33.50;;;;;;5019315;28;20372;-74
2022/12/28 12:33:35;;;;;;;5.57;2.35;;;17.50;34.70;;;;;;5017978;28;20054;-74
2022/12/28 12:36:14;;;;;;;2.55;1.83;;;16.90;36.40;;;;;;5019504;28;20021;-74
2022/12/28 12:39:09;;;;;;;4.95;2.28;;;15.90;38.20;;;;;;5019694;28;20445;-74
2022/12/28 12:41:58;;;;;;;5.47;2.40;;;15.60;39.80;;;;;;5019308;28;20053;-74
2022/12/28 12:44:36;;;;;;;4.43;2.58;;;15.90;38.60;;;;;;5019501;28;20022;-74
2022/12/28 12:47:08;;;;;;;4.35;2.42;;;15.50;39.10;;;;;;5019140;28;20474;-73
2022/12/28 12:49:57;;;;;;;7.30;2.83;;;14.90;40.40;;;;;;5019431;28;20470;-73
2022/12/28 12:52:44;;;;;;;3.95;2.22;;;14.00;42.80;;;;;;5018522;28;20056;-74
2022/12/28 12:55:22;;;;;;;3.00;2.20;;;12.70;46.80;;;;;;5018091;28;20026;-73
2022/12/28 12:58:07;;;;;;;3.63;2.35;;;12.00;49.00;;;;;;5025420;28;20018;-73
2022/12/28 13:01:00;;;;;;;6.32;2.85;;;11.40;51.30;;;;;;5021197;28;20109;-75
2022/12/28 13:03:30;;;;;;;5.90;3.55;;;10.90;53.40;;;;;;5020325;28;20030;-74
2022/12/28 13:05:57;;;;;;;5.28;3.50;;;10.90;54.00;;;;;;5019592;28;20025;-74
2022/12/28 13:08:32;;;;;;;5.70;3.95;;;10.70;54.10;;;;;;5019289;28;20022;-74
2022/12/28 13:10:57;;;;;;;5.68;2.90;;;10.40;55.30;;;;;;5019344;28;20032;-73
2022/12/28 13:13:35;;;;;;;6.03;3.42;;;10.10;56.40;;;;;;5019196;28;20026;-73
2022/12/28 13:16:04;;;;;;;5.65;2.40;;;9.70;58.70;;;;;;5019172;28;20041;-74
2022/12/28 13:18:30;;;;;;;4.10;2.80;;;9.30;59.60;;;;;;5018966;28;20117;-73
2022/12/28 13:21:01;;;;;;;3.95;2.70;;;9.10;60.40;;;;;;5019363;28;20108;-74
2022/12/28 13:23:29;;;;;;;6.85;3.53;;;8.90;61.60;;;;;;5018801;28;20529;-73
2022/12/28 13:26:00;;;;;;;5.32;3.30;;;8.70;62.40;;;;;;5019193;28;20025;-76
2022/12/28 13:28:31;;;;;;;6.38;3.13;;;8.70;63.10;;;;;;5015117;28;20105;-73
2022/12/28 13:31:05;;;;;;;5.78;3.25;;;8.60;63.40;;;;;;5014935;28;20486;-75
2022/12/28 13:33:31;;;;;;;4.43;3.03;;;8.60;63.60;;;;;;5016259;28;20032;-76
2022/12/28 13:36:11;;;;;;;5.03;3.25;;;8.50;64.10;;;;;;5016027;28;20026;-74
2022/12/28 13:38:36;;;;;;;5.55;3.67;;;8.60;64.00;;;;;;5015994;28;20386;-75
2022/12/28 13:41:03;;;;;;;7.43;3.97;;;8.40;64.30;;;;;;5015139;28;20046;-75